Dorchester, Iowa
Current Conditions -  °F | °C
As of 7:55 PM on Friday 24 Oct 2014 (Local Time) from KDEH Reporting Station
Haze Haze  
Wind Chill: 14°   Ceiling: 400
Heat Index: 14°   Visibility: 5mi
Dew Point: 14°   Wind: 3mph
Humidity: 100%   Direction: NA
Pressure: 29.91"   Gusts: NA
Location:  43.48°N, 91.51°W
Report Text: KDEH 250055Z AUTO VRB03KT 5SM BR OVC004 14/14 A2991 RMK AO2
Loading
Personal Weather Stations






























Interactive Weather Map
Tropical Storm Tracking
New forecast layout! Learn more

10-Day Weather Forecast

Advertisements
Track Severe Weather on mobile